sensor_id;sensor_type;location;lat;lon;timestamp;P1;durP1;ratioP1;P2;durP2;ratioP2
1454;SDS011;721;48.168;12.818;2022-09-04T00:00:06;2.15;;;1.95;;
1454;SDS011;721;48.168;12.818;2022-09-04T00:02:39;2.13;;;2.00;;
1454;SDS011;721;48.168;12.818;2022-09-04T00:05:14;2.67;;;2.47;;
1454;SDS011;721;48.168;12.818;2022-09-04T00:07:49;2.10;;;2.00;;
1454;SDS011;721;48.168;12.818;2022-09-04T00:10:28;2.70;;;2.50;;
1454;SDS011;721;48.168;12.818;2022-09-04T00:12:58;2.22;;;2.03;;
1454;SDS011;721;48.168;12.818;2022-09-04T00:15:31;2.75;;;2.20;;
1454;SDS011;721;48.168;12.818;2022-09-04T00:18:02;2.50;;;2.25;;
1454;SDS011;721;48.168;12.818;2022-09-04T00:20:35;2.55;;;2.35;;
1454;SDS011;721;48.168;12.818;2022-09-04T00:23:11;2.30;;;2.10;;
1454;SDS011;721;48.168;12.818;2022-09-04T00:25:46;3.10;;;2.90;;
1454;SDS011;721;48.168;12.818;2022-09-04T00:28:21;2.10;;;2.00;;
1454;SDS011;721;48.168;12.818;2022-09-04T00:31:00;2.97;;;2.08;;
1454;SDS011;721;48.168;12.818;2022-09-04T00:33:34;1.60;;;1.50;;
1454;SDS011;721;48.168;12.818;2022-09-04T00:36:06;1.42;;;1.33;;
1454;SDS011;721;48.168;12.818;2022-09-04T00:38:37;2.30;;;2.10;;
1454;SDS011;721;48.168;12.818;2022-09-04T00:41:10;2.03;;;1.88;;
1454;SDS011;721;48.168;12.818;2022-09-04T00:43:51;2.05;;;1.70;;
1454;SDS011;721;48.168;12.818;2022-09-04T00:49:48;1.70;;;1.60;;
1454;SDS011;721;48.168;12.818;2022-09-04T00:52:29;2.58;;;1.77;;
1454;SDS011;721;48.168;12.818;2022-09-04T00:55:19;4.55;;;1.92;;
1454;SDS011;721;48.168;12.818;2022-09-04T00:58:02;1.80;;;1.70;;
1454;SDS011;721;48.168;12.818;2022-09-04T01:00:37;1.92;;;1.73;;
1454;SDS011;721;48.168;12.818;2022-09-04T01:06:09;1.63;;;1.52;;
1454;SDS011;721;48.168;12.818;2022-09-04T01:08:56;2.42;;;2.22;;
1454;SDS011;721;48.168;12.818;2022-09-04T01:11:42;1.70;;;1.60;;
1454;SDS011;721;48.168;12.818;2022-09-04T01:14:24;1.80;;;1.70;;
1454;SDS011;721;48.168;12.818;2022-09-04T01:16:59;2.25;;;1.95;;
1454;SDS011;721;48.168;12.818;2022-09-04T01:19:38;2.85;;;1.20;;
1454;SDS011;721;48.168;12.818;2022-09-04T01:22:31;2.38;;;2.22;;
1454;SDS011;721;48.168;12.818;2022-09-04T01:25:19;6.63;;;1.85;;
1454;SDS011;721;48.168;12.818;2022-09-04T01:27:59;2.05;;;1.95;;
1454;SDS011;721;48.168;12.818;2022-09-04T01:30:31;2.03;;;1.92;;
1454;SDS011;721;48.168;12.818;2022-09-04T01:33:04;1.60;;;1.50;;
1454;SDS011;721;48.168;12.818;2022-09-04T01:35:40;2.60;;;2.40;;
1454;SDS011;721;48.168;12.818;2022-09-04T01:38:15;1.70;;;1.60;;
1454;SDS011;721;48.168;12.818;2022-09-04T01:40:48;1.65;;;1.55;;
1454;SDS011;721;48.168;12.818;2022-09-04T01:43:20;2.38;;;2.22;;
1454;SDS011;721;48.168;12.818;2022-09-04T01:45:58;2.45;;;2.22;;
1454;SDS011;721;48.168;12.818;2022-09-04T01:48:45;2.25;;;1.95;;
1454;SDS011;721;48.168;12.818;2022-09-04T01:51:21;2.00;;;1.90;;
1454;SDS011;721;48.168;12.818;2022-09-04T01:53:56;2.08;;;1.85;;
1454;SDS011;721;48.168;12.818;2022-09-04T01:56:37;1.77;;;1.65;;
1454;SDS011;721;48.168;12.818;2022-09-04T01:59:13;1.30;;;1.30;;
1454;SDS011;721;48.168;12.818;2022-09-04T02:01:51;1.70;;;1.60;;
1454;SDS011;721;48.168;12.818;2022-09-04T02:04:27;1.85;;;1.20;;
1454;SDS011;721;48.168;12.818;2022-09-04T02:07:01;2.45;;;1.50;;
1454;SDS011;721;48.168;12.818;2022-09-04T02:09:33;1.33;;;1.23;;
1454;SDS011;721;48.168;12.818;2022-09-04T02:12:08;1.65;;;1.55;;
1454;SDS011;721;48.168;12.818;2022-09-04T02:14:45;1.48;;;1.38;;
1454;SDS011;721;48.168;12.818;2022-09-04T02:17:20;2.53;;;2.20;;
1454;SDS011;721;48.168;12.818;2022-09-04T02:20:02;1.70;;;1.60;;
1454;SDS011;721;48.168;12.818;2022-09-04T02:22:44;2.22;;;2.05;;
1454;SDS011;721;48.168;12.818;2022-09-04T02:25:21;1.48;;;1.38;;
1454;SDS011;721;48.168;12.818;2022-09-04T02:27:57;2.03;;;1.70;;
1454;SDS011;721;48.168;12.818;2022-09-04T02:30:36;1.55;;;1.45;;
1454;SDS011;721;48.168;12.818;2022-09-04T02:33:10;2.40;;;2.10;;
1454;SDS011;721;48.168;12.818;2022-09-04T02:35:43;1.50;;;1.40;;
1454;SDS011;721;48.168;12.818;2022-09-04T02:38:17;1.85;;;1.58;;
1454;SDS011;721;48.168;12.818;2022-09-04T02:40:51;6.10;;;1.33;;
1454;SDS011;721;48.168;12.818;2022-09-04T02:43:32;1.80;;;1.67;;
1454;SDS011;721;48.168;12.818;2022-09-04T02:46:12;1.83;;;1.70;;
1454;SDS011;721;48.168;12.818;2022-09-04T02:48:49;2.25;;;2.05;;
1454;SDS011;721;48.168;12.818;2022-09-04T02:51:29;1.40;;;1.30;;
1454;SDS011;721;48.168;12.818;2022-09-04T02:54:22;1.30;;;1.20;;
1454;SDS011;721;48.168;12.818;2022-09-04T02:56:59;1.48;;;1.38;;
1454;SDS011;721;48.168;12.818;2022-09-04T02:59:40;1.70;;;1.48;;
1454;SDS011;721;48.168;12.818;2022-09-04T03:02:19;1.33;;;1.30;;
1454;SDS011;721;48.168;12.818;2022-09-04T03:04:51;8.68;;;1.60;;
1454;SDS011;721;48.168;12.818;2022-09-04T03:07:26;1.95;;;1.42;;
1454;SDS011;721;48.168;12.818;2022-09-04T03:09:58;1.55;;;1.45;;
1454;SDS011;721;48.168;12.818;2022-09-04T03:12:33;1.33;;;1.33;;
1454;SDS011;721;48.168;12.818;2022-09-04T03:15:06;1.48;;;1.38;;
1454;SDS011;721;48.168;12.818;2022-09-04T03:17:43;1.50;;;1.00;;
1454;SDS011;721;48.168;12.818;2022-09-04T03:20:18;0.90;;;0.90;;
1454;SDS011;721;48.168;12.818;2022-09-04T03:22:49;1.17;;;1.13;;
1454;SDS011;721;48.168;12.818;2022-09-04T03:25:28;1.85;;;0.93;;
1454;SDS011;721;48.168;12.818;2022-09-04T03:28:19;1.48;;;1.38;;
1454;SDS011;721;48.168;12.818;2022-09-04T03:30:56;0.93;;;0.93;;
1454;SDS011;721;48.168;12.818;2022-09-04T03:33:32;1.17;;;1.08;;
1454;SDS011;721;48.168;12.818;2022-09-04T03:36:06;1.20;;;1.20;;
1454;SDS011;721;48.168;12.818;2022-09-04T03:38:40;2.00;;;1.50;;
1454;SDS011;721;48.168;12.818;2022-09-04T03:41:25;0.90;;;0.90;;
1454;SDS011;721;48.168;12.818;2022-09-04T03:44:04;1.60;;;1.10;;
1454;SDS011;721;48.168;12.818;2022-09-04T03:46:48;1.85;;;1.10;;
1454;SDS011;721;48.168;12.818;2022-09-04T03:49:28;1.05;;;1.05;;
1454;SDS011;721;48.168;12.818;2022-09-04T03:52:08;1.35;;;1.25;;
1454;SDS011;721;48.168;12.818;2022-09-04T03:54:49;0.90;;;0.90;;
1454;SDS011;721;48.168;12.818;2022-09-04T03:57:39;1.15;;;1.15;;
1454;SDS011;721;48.168;12.818;2022-09-04T04:00:17;1.35;;;1.25;;
1454;SDS011;721;48.168;12.818;2022-09-04T04:02:49;1.48;;;1.38;;
1454;SDS011;721;48.168;12.818;2022-09-04T04:08:31;1.40;;;1.30;;
1454;SDS011;721;48.168;12.818;2022-09-04T04:11:16;2.17;;;1.73;;
1454;SDS011;721;48.168;12.818;2022-09-04T04:14:04;2.35;;;1.50;;
1454;SDS011;721;48.168;12.818;2022-09-04T04:16:43;2.88;;;1.80;;
1454;SDS011;721;48.168;12.818;2022-09-04T04:19:25;1.80;;;1.70;;
1454;SDS011;721;48.168;12.818;2022-09-04T04:28:12;1.70;;;1.60;;
1454;SDS011;721;48.168;12.818;2022-09-04T04:30:49;2.25;;;2.05;;
1454;SDS011;721;48.168;12.818;2022-09-04T04:33:24;4.35;;;2.28;;
1454;SDS011;721;48.168;12.818;2022-09-04T04:36:02;4.00;;;1.58;;
1454;SDS011;721;48.168;12.818;2022-09-04T04:38:46;2.03;;;1.83;;
1454;SDS011;721;48.168;12.818;2022-09-04T04:41:25;2.47;;;2.28;;
1454;SDS011;721;48.168;12.818;2022-09-04T04:44:27;2.17;;;2.08;;
1454;SDS011;721;48.168;12.818;2022-09-04T04:47:18;2.50;;;2.33;;
1454;SDS011;721;48.168;12.818;2022-09-04T04:50:02;2.65;;;2.25;;
1454;SDS011;721;48.168;12.818;2022-09-04T04:52:39;2.85;;;2.00;;
1454;SDS011;721;48.168;12.818;2022-09-04T04:55:16;2.88;;;2.67;;
1454;SDS011;721;48.168;12.818;2022-09-04T04:57:59;2.70;;;2.50;;
1454;SDS011;721;48.168;12.818;2022-09-04T05:00:48;3.13;;;3.03;;
1454;SDS011;721;48.168;12.818;2022-09-04T05:03:22;3.90;;;2.75;;
1454;SDS011;721;48.168;12.818;2022-09-04T05:05:57;2.58;;;2.38;;
1454;SDS011;721;48.168;12.818;2022-09-04T05:08:33;3.15;;;2.95;;
1454;SDS011;721;48.168;12.818;2022-09-04T05:11:08;2.92;;;2.72;;
1454;SDS011;721;48.168;12.818;2022-09-04T05:13:44;2.72;;;2.40;;
1454;SDS011;721;48.168;12.818;2022-09-04T05:16:19;3.05;;;2.85;;
1454;SDS011;721;48.168;12.818;2022-09-04T05:18:56;3.15;;;2.90;;
1454;SDS011;721;48.168;12.818;2022-09-04T05:21:28;3.25;;;3.00;;
1454;SDS011;721;48.168;12.818;2022-09-04T05:24:00;3.28;;;3.08;;
1454;SDS011;721;48.168;12.818;2022-09-04T05:26:37;3.45;;;3.15;;
1454;SDS011;721;48.168;12.818;2022-09-04T05:29:09;4.22;;;3.45;;
1454;SDS011;721;48.168;12.818;2022-09-04T05:31:44;4.22;;;3.92;;
1454;SDS011;721;48.168;12.818;2022-09-04T05:34:18;7.18;;;4.50;;
1454;SDS011;721;48.168;12.818;2022-09-04T05:36:57;5.28;;;3.97;;
1454;SDS011;721;48.168;12.818;2022-09-04T05:39:35;5.25;;;4.82;;
1454;SDS011;721;48.168;12.818;2022-09-04T05:42:17;6.57;;;6.07;;
1454;SDS011;721;48.168;12.818;2022-09-04T05:45:04;6.43;;;5.88;;
1454;SDS011;721;48.168;12.818;2022-09-04T05:47:45;7.18;;;6.45;;
1454;SDS011;721;48.168;12.818;2022-09-04T05:50:25;9.00;;;7.10;;
1454;SDS011;721;48.168;12.818;2022-09-04T05:53:14;8.30;;;7.40;;
1454;SDS011;721;48.168;12.818;2022-09-04T05:55:58;6.75;;;6.15;;
1454;SDS011;721;48.168;12.818;2022-09-04T05:58:44;7.80;;;6.20;;
1454;SDS011;721;48.168;12.818;2022-09-04T06:01:24;6.90;;;6.30;;
1454;SDS011;721;48.168;12.818;2022-09-04T06:04:31;6.75;;;6.13;;
1454;SDS011;721;48.168;12.818;2022-09-04T06:07:20;7.80;;;5.85;;
1454;SDS011;721;48.168;12.818;2022-09-04T06:09:56;5.35;;;4.85;;
1454;SDS011;721;48.168;12.818;2022-09-04T06:15:33;5.10;;;4.60;;
1454;SDS011;721;48.168;12.818;2022-09-04T06:18:15;6.40;;;5.65;;
1454;SDS011;721;48.168;12.818;2022-09-04T06:21:08;6.55;;;4.75;;
1454;SDS011;721;48.168;12.818;2022-09-04T06:24:01;6.28;;;4.22;;
1454;SDS011;721;48.168;12.818;2022-09-04T06:26:43;5.05;;;4.60;;
1454;SDS011;721;48.168;12.818;2022-09-04T06:29:30;5.45;;;4.72;;
1454;SDS011;721;48.168;12.818;2022-09-04T06:32:28;5.93;;;4.85;;
1454;SDS011;721;48.168;12.818;2022-09-04T06:35:12;4.80;;;4.35;;
1454;SDS011;721;48.168;12.818;2022-09-04T06:37:55;6.30;;;4.07;;
1454;SDS011;721;48.168;12.818;2022-09-04T06:40:36;7.05;;;5.38;;
1454;SDS011;721;48.168;12.818;2022-09-04T06:43:14;6.55;;;5.88;;
1454;SDS011;721;48.168;12.818;2022-09-04T06:45:53;5.95;;;5.35;;
1454;SDS011;721;48.168;12.818;2022-09-04T06:48:34;7.65;;;5.45;;
1454;SDS011;721;48.168;12.818;2022-09-04T06:51:13;6.30;;;5.13;;
1454;SDS011;721;48.168;12.818;2022-09-04T06:53:49;6.30;;;5.57;;
1454;SDS011;721;48.168;12.818;2022-09-04T06:56:31;5.37;;;4.33;;
1454;SDS011;721;48.168;12.818;2022-09-04T06:59:15;6.90;;;5.85;;
1454;SDS011;721;48.168;12.818;2022-09-04T07:01:51;5.63;;;4.90;;
1454;SDS011;721;48.168;12.818;2022-09-04T07:04:32;5.80;;;4.87;;
1454;SDS011;721;48.168;12.818;2022-09-04T07:07:10;6.33;;;5.20;;
1454;SDS011;721;48.168;12.818;2022-09-04T07:09:43;8.15;;;4.97;;
1454;SDS011;721;48.168;12.818;2022-09-04T07:12:19;9.70;;;6.30;;
1454;SDS011;721;48.168;12.818;2022-09-04T07:15:12;6.50;;;4.67;;
1454;SDS011;721;48.168;12.818;2022-09-04T07:17:53;6.63;;;5.40;;
1454;SDS011;721;48.168;12.818;2022-09-04T07:20:31;5.67;;;5.07;;
1454;SDS011;721;48.168;12.818;2022-09-04T07:23:20;5.90;;;5.13;;
1454;SDS011;721;48.168;12.818;2022-09-04T07:25:58;5.10;;;4.40;;
1454;SDS011;721;48.168;12.818;2022-09-04T07:28:35;6.50;;;4.40;;
1454;SDS011;721;48.168;12.818;2022-09-04T07:31:14;8.00;;;5.07;;
1454;SDS011;721;48.168;12.818;2022-09-04T07:33:48;5.80;;;4.40;;
1454;SDS011;721;48.168;12.818;2022-09-04T07:36:23;7.13;;;5.10;;
1454;SDS011;721;48.168;12.818;2022-09-04T07:38:58;6.40;;;3.87;;
1454;SDS011;721;48.168;12.818;2022-09-04T07:41:33;5.77;;;4.40;;
1454;SDS011;721;48.168;12.818;2022-09-04T07:44:12;8.57;;;5.40;;
1454;SDS011;721;48.168;12.818;2022-09-04T07:46:45;6.70;;;4.53;;
1454;SDS011;721;48.168;12.818;2022-09-04T07:49:25;5.37;;;3.77;;
1454;SDS011;721;48.168;12.818;2022-09-04T07:51:59;5.20;;;4.20;;
1454;SDS011;721;48.168;12.818;2022-09-04T07:54:45;4.77;;;4.13;;
1454;SDS011;721;48.168;12.818;2022-09-04T07:57:28;4.37;;;3.50;;
1454;SDS011;721;48.168;12.818;2022-09-04T08:00:06;4.13;;;3.60;;
1454;SDS011;721;48.168;12.818;2022-09-04T08:02:37;3.33;;;3.03;;
1454;SDS011;721;48.168;12.818;2022-09-04T08:05:23;3.73;;;2.73;;
1454;SDS011;721;48.168;12.818;2022-09-04T08:08:11;3.70;;;3.30;;
1454;SDS011;721;48.168;12.818;2022-09-04T08:11:10;4.07;;;2.80;;
1454;SDS011;721;48.168;12.818;2022-09-04T08:14:03;3.20;;;2.90;;
1454;SDS011;721;48.168;12.818;2022-09-04T08:19:51;3.77;;;2.50;;
1454;SDS011;721;48.168;12.818;2022-09-04T08:22:29;3.03;;;2.10;;
1454;SDS011;721;48.168;12.818;2022-09-04T08:25:09;2.90;;;2.60;;
1454;SDS011;721;48.168;12.818;2022-09-04T08:27:49;2.30;;;2.20;;
1454;SDS011;721;48.168;12.818;2022-09-04T08:30:27;2.30;;;1.77;;
1454;SDS011;721;48.168;12.818;2022-09-04T08:33:06;2.43;;;2.23;;
1454;SDS011;721;48.168;12.818;2022-09-04T08:35:46;3.83;;;2.20;;
1454;SDS011;721;48.168;12.818;2022-09-04T08:38:25;2.67;;;2.10;;
1454;SDS011;721;48.168;12.818;2022-09-04T08:41:33;2.53;;;2.13;;
1454;SDS011;721;48.168;12.818;2022-09-04T08:44:59;5.73;;;2.30;;
1454;SDS011;721;48.168;12.818;2022-09-04T08:51:12;2.37;;;2.17;;
1454;SDS011;721;48.168;12.818;2022-09-04T08:54:17;4.10;;;2.60;;
1454;SDS011;721;48.168;12.818;2022-09-04T08:57:19;2.90;;;2.60;;
1454;SDS011;721;48.168;12.818;2022-09-04T09:00:21;2.30;;;1.90;;
1454;SDS011;721;48.168;12.818;2022-09-04T09:02:59;2.60;;;2.40;;
1454;SDS011;721;48.168;12.818;2022-09-04T09:06:06;3.03;;;2.40;;
1454;SDS011;721;48.168;12.818;2022-09-04T09:09:02;2.67;;;2.47;;
1454;SDS011;721;48.168;12.818;2022-09-04T09:12:04;3.30;;;2.80;;
1454;SDS011;721;48.168;12.818;2022-09-04T09:15:01;3.03;;;2.83;;
1454;SDS011;721;48.168;12.818;2022-09-04T09:18:08;3.10;;;2.50;;
1454;SDS011;721;48.168;12.818;2022-09-04T09:21:04;3.73;;;2.60;;
1454;SDS011;721;48.168;12.818;2022-09-04T09:23:37;4.57;;;3.33;;
1454;SDS011;721;48.168;12.818;2022-09-04T09:26:22;3.13;;;2.60;;
1454;SDS011;721;48.168;12.818;2022-09-04T09:35:22;4.87;;;3.50;;
1454;SDS011;721;48.168;12.818;2022-09-04T09:44:40;3.43;;;3.13;;
1454;SDS011;721;48.168;12.818;2022-09-04T09:50:45;4.43;;;2.57;;
1454;SDS011;721;48.168;12.818;2022-09-04T09:57:06;3.20;;;2.90;;
1454;SDS011;721;48.168;12.818;2022-09-04T10:00:07;3.03;;;2.60;;
1454;SDS011;721;48.168;12.818;2022-09-04T10:12:17;2.87;;;2.67;;
1454;SDS011;721;48.168;12.818;2022-09-04T10:18:21;2.77;;;2.53;;
1454;SDS011;721;48.168;12.818;2022-09-04T10:21:18;4.90;;;2.73;;
1454;SDS011;721;48.168;12.818;2022-09-04T10:24:14;2.53;;;2.33;;
1454;SDS011;721;48.168;12.818;2022-09-04T10:30:11;2.80;;;2.57;;
1454;SDS011;721;48.168;12.818;2022-09-04T10:32:52;3.30;;;3.00;;
1454;SDS011;721;48.168;12.818;2022-09-04T10:35:42;2.63;;;2.43;;
1454;SDS011;721;48.168;12.818;2022-09-04T10:38:25;2.67;;;2.47;;
1454;SDS011;721;48.168;12.818;2022-09-04T10:41:37;4.63;;;2.30;;
1454;SDS011;721;48.168;12.818;2022-09-04T10:47:31;3.03;;;2.73;;
1454;SDS011;721;48.168;12.818;2022-09-04T10:53:29;2.67;;;2.47;;
1454;SDS011;721;48.168;12.818;2022-09-04T10:56:16;4.53;;;2.77;;
1454;SDS011;721;48.168;12.818;2022-09-04T10:59:04;3.53;;;2.70;;
1454;SDS011;721;48.168;12.818;2022-09-04T11:02:01;1.90;;;1.80;;
1454;SDS011;721;48.168;12.818;2022-09-04T11:05:07;2.57;;;2.37;;
1454;SDS011;721;48.168;12.818;2022-09-04T11:07:49;4.70;;;2.33;;
1454;SDS011;721;48.168;12.818;2022-09-04T11:10:40;2.20;;;2.00;;
1454;SDS011;721;48.168;12.818;2022-09-04T11:22:37;1.80;;;1.70;;
1454;SDS011;721;48.168;12.818;2022-09-04T11:25:33;2.77;;;1.90;;
1454;SDS011;721;48.168;12.818;2022-09-04T11:28:29;2.10;;;2.00;;
1454;SDS011;721;48.168;12.818;2022-09-04T11:31:20;1.67;;;1.57;;
1454;SDS011;721;48.168;12.818;2022-09-04T11:34:10;2.53;;;2.10;;
1454;SDS011;721;48.168;12.818;2022-09-04T11:40:06;2.10;;;2.00;;
1454;SDS011;721;48.168;12.818;2022-09-04T11:43:02;2.47;;;2.10;;
1454;SDS011;721;48.168;12.818;2022-09-04T11:45:53;1.73;;;1.63;;
1454;SDS011;721;48.168;12.818;2022-09-04T11:55:15;1.60;;;1.47;;
1454;SDS011;721;48.168;12.818;2022-09-04T11:58:02;2.33;;;1.63;;
1454;SDS011;721;48.168;12.818;2022-09-04T12:00:52;1.60;;;1.50;;
1454;SDS011;721;48.168;12.818;2022-09-04T12:06:47;2.30;;;1.73;;
1454;SDS011;721;48.168;12.818;2022-09-04T12:12:26;2.13;;;1.93;;
1454;SDS011;721;48.168;12.818;2022-09-04T12:15:18;1.90;;;1.80;;
1454;SDS011;721;48.168;12.818;2022-09-04T12:18:08;2.47;;;2.20;;
1454;SDS011;721;48.168;12.818;2022-09-04T12:24:06;2.00;;;1.90;;
1454;SDS011;721;48.168;12.818;2022-09-04T12:27:20;2.40;;;1.77;;
1454;SDS011;721;48.168;12.818;2022-09-04T12:30:05;2.43;;;2.00;;
1454;SDS011;721;48.168;12.818;2022-09-04T12:32:58;2.50;;;1.50;;
1454;SDS011;721;48.168;12.818;2022-09-04T12:35:30;1.53;;;1.43;;
1454;SDS011;721;48.168;12.818;2022-09-04T12:41:33;2.17;;;1.90;;
1454;SDS011;721;48.168;12.818;2022-09-04T12:44:09;1.70;;;1.60;;
1454;SDS011;721;48.168;12.818;2022-09-04T12:46:45;1.53;;;1.43;;
1454;SDS011;721;48.168;12.818;2022-09-04T12:49:27;1.80;;;1.70;;
1454;SDS011;721;48.168;12.818;2022-09-04T12:52:08;4.37;;;1.90;;
1454;SDS011;721;48.168;12.818;2022-09-04T12:54:44;1.60;;;1.50;;
1454;SDS011;721;48.168;12.818;2022-09-04T12:57:25;2.20;;;1.60;;
1454;SDS011;721;48.168;12.818;2022-09-04T13:00:04;1.80;;;1.70;;
1454;SDS011;721;48.168;12.818;2022-09-04T13:02:37;1.60;;;1.47;;
1454;SDS011;721;48.168;12.818;2022-09-04T13:08:19;1.40;;;1.30;;
1454;SDS011;721;48.168;12.818;2022-09-04T13:10:57;1.57;;;1.47;;
1454;SDS011;721;48.168;12.818;2022-09-04T13:13:33;3.07;;;1.90;;
1454;SDS011;721;48.168;12.818;2022-09-04T13:16:11;1.83;;;1.63;;
1454;SDS011;721;48.168;12.818;2022-09-04T13:18:49;2.07;;;1.60;;
1454;SDS011;721;48.168;12.818;2022-09-04T13:21:27;2.13;;;1.93;;
1454;SDS011;721;48.168;12.818;2022-09-04T13:24:10;1.40;;;1.30;;
1454;SDS011;721;48.168;12.818;2022-09-04T13:26:53;2.00;;;1.67;;
1454;SDS011;721;48.168;12.818;2022-09-04T13:29:34;2.00;;;1.90;;
1454;SDS011;721;48.168;12.818;2022-09-04T13:35:08;1.47;;;1.37;;
1454;SDS011;721;48.168;12.818;2022-09-04T13:37:42;5.43;;;2.17;;
1454;SDS011;721;48.168;12.818;2022-09-04T13:40:25;1.90;;;1.80;;
1454;SDS011;721;48.168;12.818;2022-09-04T13:43:08;1.67;;;1.50;;
1454;SDS011;721;48.168;12.818;2022-09-04T13:46:02;2.13;;;1.27;;
1454;SDS011;721;48.168;12.818;2022-09-04T13:48:35;1.80;;;1.57;;
1454;SDS011;721;48.168;12.818;2022-09-04T13:51:09;1.20;;;1.10;;
1454;SDS011;721;48.168;12.818;2022-09-04T13:53:45;1.50;;;1.40;;
1454;SDS011;721;48.168;12.818;2022-09-04T13:56:21;2.53;;;1.30;;
1454;SDS011;721;48.168;12.818;2022-09-04T13:58:54;1.27;;;1.20;;
1454;SDS011;721;48.168;12.818;2022-09-04T14:01:26;1.00;;;1.00;;
1454;SDS011;721;48.168;12.818;2022-09-04T14:03:55;1.60;;;1.50;;
1454;SDS011;721;48.168;12.818;2022-09-04T14:06:26;1.40;;;1.30;;
1454;SDS011;721;48.168;12.818;2022-09-04T14:08:56;1.33;;;1.23;;
1454;SDS011;721;48.168;12.818;2022-09-04T14:11:34;1.53;;;1.43;;
1454;SDS011;721;48.168;12.818;2022-09-04T14:14:20;1.77;;;1.17;;
1454;SDS011;721;48.168;12.818;2022-09-04T14:17:02;1.40;;;1.30;;
1454;SDS011;721;48.168;12.818;2022-09-04T14:19:36;1.73;;;1.63;;
1454;SDS011;721;48.168;12.818;2022-09-04T14:22:15;2.70;;;1.80;;
1454;SDS011;721;48.168;12.818;2022-09-04T14:24:50;1.90;;;1.30;;
1454;SDS011;721;48.168;12.818;2022-09-04T14:27:27;3.13;;;1.40;;
1454;SDS011;721;48.168;12.818;2022-09-04T14:30:03;1.50;;;1.40;;
1454;SDS011;721;48.168;12.818;2022-09-04T14:32:35;1.40;;;1.30;;
1454;SDS011;721;48.168;12.818;2022-09-04T14:35:18;1.10;;;1.10;;
1454;SDS011;721;48.168;12.818;2022-09-04T14:37:56;1.10;;;1.00;;
1454;SDS011;721;48.168;12.818;2022-09-04T14:40:41;1.57;;;1.30;;
1454;SDS011;721;48.168;12.818;2022-09-04T14:43:11;1.60;;;1.10;;
1454;SDS011;721;48.168;12.818;2022-09-04T14:45:53;1.60;;;1.50;;
1454;SDS011;721;48.168;12.818;2022-09-04T14:48:30;1.30;;;1.20;;
1454;SDS011;721;48.168;12.818;2022-09-04T14:51:10;1.20;;;1.10;;
1454;SDS011;721;48.168;12.818;2022-09-04T14:53:44;1.37;;;1.27;;
1454;SDS011;721;48.168;12.818;2022-09-04T14:56:19;2.50;;;1.17;;
1454;SDS011;721;48.168;12.818;2022-09-04T14:58:52;1.63;;;1.53;;
1454;SDS011;721;48.168;12.818;2022-09-04T15:01:24;1.30;;;1.20;;
1454;SDS011;721;48.168;12.818;2022-09-04T15:03:53;3.07;;;1.33;;
1454;SDS011;721;48.168;12.818;2022-09-04T15:06:25;1.10;;;1.10;;
1454;SDS011;721;48.168;12.818;2022-09-04T15:08:54;1.70;;;1.60;;
1454;SDS011;721;48.168;12.818;2022-09-04T15:11:40;1.63;;;1.53;;
1454;SDS011;721;48.168;12.818;2022-09-04T15:14:08;1.07;;;1.07;;
1454;SDS011;721;48.168;12.818;2022-09-04T15:16:57;1.17;;;1.03;;
1454;SDS011;721;48.168;12.818;2022-09-04T15:19:34;1.20;;;1.10;;
1454;SDS011;721;48.168;12.818;2022-09-04T15:22:12;1.33;;;1.23;;
1454;SDS011;721;48.168;12.818;2022-09-04T15:24:49;1.17;;;1.17;;
1454;SDS011;721;48.168;12.818;2022-09-04T15:27:22;0.90;;;0.90;;
1454;SDS011;721;48.168;12.818;2022-09-04T15:29:57;1.17;;;1.03;;
1454;SDS011;721;48.168;12.818;2022-09-04T15:32:30;0.90;;;0.90;;
1454;SDS011;721;48.168;12.818;2022-09-04T15:38:01;1.20;;;1.20;;
1454;SDS011;721;48.168;12.818;2022-09-04T15:40:30;1.57;;;1.23;;
1454;SDS011;721;48.168;12.818;2022-09-04T15:43:05;1.77;;;1.30;;
1454;SDS011;721;48.168;12.818;2022-09-04T15:45:40;1.00;;;1.00;;
1454;SDS011;721;48.168;12.818;2022-09-04T15:48:15;1.00;;;1.00;;
1454;SDS011;721;48.168;12.818;2022-09-04T15:50:56;1.60;;;1.20;;
1454;SDS011;721;48.168;12.818;2022-09-04T15:53:31;1.67;;;1.57;;
1454;SDS011;721;48.168;12.818;2022-09-04T15:56:02;2.30;;;1.47;;
1454;SDS011;721;48.168;12.818;2022-09-04T15:58:37;1.00;;;1.00;;
1454;SDS011;721;48.168;12.818;2022-09-04T16:01:12;1.33;;;1.23;;
1454;SDS011;721;48.168;12.818;2022-09-04T16:03:45;3.37;;;1.50;;
1454;SDS011;721;48.168;12.818;2022-09-04T16:06:20;2.00;;;1.50;;
1454;SDS011;721;48.168;12.818;2022-09-04T16:08:52;1.40;;;1.30;;
1454;SDS011;721;48.168;12.818;2022-09-04T16:11:25;1.40;;;1.30;;
1454;SDS011;721;48.168;12.818;2022-09-04T16:13:57;1.50;;;1.40;;
1454;SDS011;721;48.168;12.818;2022-09-04T16:16:27;1.43;;;1.33;;
1454;SDS011;721;48.168;12.818;2022-09-04T16:19:06;1.80;;;1.40;;
1454;SDS011;721;48.168;12.818;2022-09-04T16:21:53;1.60;;;1.43;;
1454;SDS011;721;48.168;12.818;2022-09-04T16:24:29;1.20;;;1.10;;
1454;SDS011;721;48.168;12.818;2022-09-04T16:27:03;1.30;;;1.20;;
1454;SDS011;721;48.168;12.818;2022-09-04T16:29:32;1.53;;;1.27;;
1454;SDS011;721;48.168;12.818;2022-09-04T16:32:01;1.53;;;1.43;;
1454;SDS011;721;48.168;12.818;2022-09-04T16:34:32;1.50;;;1.40;;
1454;SDS011;721;48.168;12.818;2022-09-04T16:37:06;1.13;;;1.13;;
1454;SDS011;721;48.168;12.818;2022-09-04T16:39:44;2.20;;;1.30;;
1454;SDS011;721;48.168;12.818;2022-09-04T16:42:22;1.67;;;1.50;;
1454;SDS011;721;48.168;12.818;2022-09-04T16:44:55;2.57;;;1.50;;
1454;SDS011;721;48.168;12.818;2022-09-04T16:47:30;3.37;;;1.40;;
1454;SDS011;721;48.168;12.818;2022-09-04T16:50:06;1.53;;;1.43;;
1454;SDS011;721;48.168;12.818;2022-09-04T16:52:43;1.80;;;1.50;;
1454;SDS011;721;48.168;12.818;2022-09-04T16:55:22;3.23;;;1.30;;
1454;SDS011;721;48.168;12.818;2022-09-04T16:58:04;2.43;;;1.80;;
1454;SDS011;721;48.168;12.818;2022-09-04T17:00:48;3.80;;;1.60;;
1454;SDS011;721;48.168;12.818;2022-09-04T17:03:24;1.20;;;1.20;;
1454;SDS011;721;48.168;12.818;2022-09-04T17:06:04;2.40;;;1.60;;
1454;SDS011;721;48.168;12.818;2022-09-04T17:08:44;1.67;;;1.57;;
1454;SDS011;721;48.168;12.818;2022-09-04T17:11:19;1.47;;;1.37;;
1454;SDS011;721;48.168;12.818;2022-09-04T17:13:55;1.40;;;1.30;;
1454;SDS011;721;48.168;12.818;2022-09-04T17:16:30;1.53;;;1.43;;
1454;SDS011;721;48.168;12.818;2022-09-04T17:19:01;1.70;;;1.60;;
1454;SDS011;721;48.168;12.818;2022-09-04T17:21:29;1.53;;;1.43;;
1454;SDS011;721;48.168;12.818;2022-09-04T17:24:22;1.40;;;1.13;;
1454;SDS011;721;48.168;12.818;2022-09-04T17:26:57;1.40;;;1.30;;
1454;SDS011;721;48.168;12.818;2022-09-04T17:29:30;1.30;;;1.30;;
1454;SDS011;721;48.168;12.818;2022-09-04T17:32:02;1.60;;;1.50;;
1454;SDS011;721;48.168;12.818;2022-09-04T17:34:44;1.50;;;1.40;;
1454;SDS011;721;48.168;12.818;2022-09-04T17:37:20;2.67;;;2.43;;
1454;SDS011;721;48.168;12.818;2022-09-04T17:39:53;2.00;;;1.90;;
1454;SDS011;721;48.168;12.818;2022-09-04T17:42:27;2.80;;;2.23;;
1454;SDS011;721;48.168;12.818;2022-09-04T17:45:02;2.33;;;2.13;;
1454;SDS011;721;48.168;12.818;2022-09-04T17:47:37;5.73;;;2.63;;
1454;SDS011;721;48.168;12.818;2022-09-04T17:50:08;2.67;;;2.37;;
1454;SDS011;721;48.168;12.818;2022-09-04T17:52:52;2.43;;;2.10;;
1454;SDS011;721;48.168;12.818;2022-09-04T17:55:23;3.00;;;2.77;;
1454;SDS011;721;48.168;12.818;2022-09-04T17:57:55;3.17;;;2.80;;
1454;SDS011;721;48.168;12.818;2022-09-04T18:00:28;3.60;;;3.30;;
1454;SDS011;721;48.168;12.818;2022-09-04T18:03:00;4.33;;;3.90;;
1454;SDS011;721;48.168;12.818;2022-09-04T18:05:33;5.40;;;4.07;;
1454;SDS011;721;48.168;12.818;2022-09-04T18:08:03;5.30;;;4.80;;
1454;SDS011;721;48.168;12.818;2022-09-04T18:10:38;4.00;;;3.60;;
1454;SDS011;721;48.168;12.818;2022-09-04T18:13:20;3.23;;;3.03;;
1454;SDS011;721;48.168;12.818;2022-09-04T18:15:53;7.13;;;3.50;;
1454;SDS011;721;48.168;12.818;2022-09-04T18:18:26;5.50;;;3.30;;
1454;SDS011;721;48.168;12.818;2022-09-04T18:21:05;6.93;;;4.00;;